Time;durP1;ratioP1;P1;durP2;ratioP2;P2;SDS_P1;SDS_P2;PMS_P1;PMS_P2;Temp;Humidity;BMP_temperature;BMP_pressure;BME280_temperature;BME280_humidity;BME280_pressure;Samples;Min_cycle;Max_cycle;Signal;HPM_P1;HPM_P2
2023/12/19 00:01:00;;;;;;;106.53;45.38;;;7.50;99.90;;;;;;5075324;28;20041;-69
2023/12/19 00:03:26;;;;;;;100.15;42.78;;;7.50;99.90;;;;;;5057450;28;20067;-69
2023/12/19 00:05:51;;;;;;;85.65;40.53;;;7.50;99.90;;;;;;5073811;28;20477;-69
2023/12/19 00:08:17;;;;;;;80.60;38.25;;;7.50;99.90;;;;;;5073817;28;20052;-69
2023/12/19 00:10:43;;;;;;;77.82;38.40;;;7.50;99.90;;;;;;5073892;28;20127;-69
2023/12/19 00:13:08;;;;;;;74.72;37.08;;;7.50;99.90;;;;;;5075200;28;20072;-69
2023/12/19 00:15:35;;;;;;;86.22;39.55;;;7.60;99.90;;;;;;5073656;28;20153;-69
2023/12/19 00:18:01;;;;;;;71.35;35.00;;;7.50;99.90;;;;;;5073838;28;20127;-69
2023/12/19 00:20:26;;;;;;;62.35;32.35;;;7.50;99.90;;;;;;5073586;28;20480;-69
2023/12/19 00:22:53;;;;;;;60.92;31.20;;;7.60;99.90;;;;;;5056582;28;20044;-69
2023/12/19 00:25:18;;;;;;;53.60;28.80;;;7.60;99.90;;;;;;5073439;28;20040;-69
2023/12/19 00:27:44;;;;;;;57.65;29.80;;;7.50;99.90;;;;;;5074856;28;20090;-69
2023/12/19 00:30:10;;;;;;;55.70;29.48;;;7.60;99.90;;;;;;5073384;28;20036;-69
2023/12/19 00:32:36;;;;;;;47.40;27.73;;;7.60;99.90;;;;;;5074720;28;20068;-69
2023/12/19 00:35:01;;;;;;;52.10;29.05;;;7.60;99.90;;;;;;5073577;28;20137;-69
2023/12/19 00:37:27;;;;;;;51.58;28.85;;;7.60;99.90;;;;;;5073525;28;20033;-69
2023/12/19 00:39:52;;;;;;;48.45;28.73;;;7.60;99.90;;;;;;5074706;28;20504;-69
2023/12/19 00:42:18;;;;;;;51.08;26.80;;;7.60;99.90;;;;;;5073043;28;20044;-69
2023/12/19 00:44:43;;;;;;;59.88;29.35;;;7.70;99.90;;;;;;5074606;28;20036;-69
2023/12/19 00:47:09;;;;;;;47.90;27.70;;;7.60;99.90;;;;;;5073169;28;20040;-69
2023/12/19 00:49:35;;;;;;;53.38;29.08;;;7.60;99.90;;;;;;5072962;28;20071;-69
2023/12/19 00:52:01;;;;;;;53.05;29.38;;;7.60;99.90;;;;;;5073749;28;20118;-69
2023/12/19 00:54:27;;;;;;;50.60;28.58;;;7.70;99.90;;;;;;5072841;28;20502;-69
2023/12/19 00:56:52;;;;;;;62.40;31.55;;;7.60;99.90;;;;;;5073077;28;20040;-69
2023/12/19 00:59:18;;;;;;;62.72;31.02;;;7.60;99.90;;;;;;5074278;28;20487;-69
2023/12/19 01:01:43;;;;;;;54.17;28.90;;;7.60;99.90;;;;;;5072709;28;20044;-69
2023/12/19 01:04:10;;;;;;;54.75;29.23;;;7.60;99.90;;;;;;5074235;28;20036;-69
2023/12/19 01:06:36;;;;;;;51.40;28.52;;;7.60;99.90;;;;;;5073897;28;20094;-69
2023/12/19 01:09:02;;;;;;;53.50;28.60;;;7.60;99.90;;;;;;5072642;28;20037;-69
2023/12/19 01:11:28;;;;;;;50.28;28.40;;;7.60;99.90;;;;;;5072557;28;20412;-69
2023/12/19 01:13:53;;;;;;;44.35;26.45;;;7.60;99.90;;;;;;5073705;28;20036;-69
2023/12/19 01:16:19;;;;;;;48.03;27.38;;;7.50;99.90;;;;;;5073684;28;20041;-69
2023/12/19 01:18:45;;;;;;;44.10;25.98;;;7.50;99.90;;;;;;5072807;28;20101;-69
2023/12/19 01:21:10;;;;;;;52.45;28.92;;;7.60;99.90;;;;;;5072349;28;20508;-69
2023/12/19 01:23:36;;;;;;;63.00;30.85;;;7.60;99.90;;;;;;5072258;28;20056;-69
2023/12/19 01:26:01;;;;;;;53.92;29.15;;;7.50;99.90;;;;;;5072608;28;20044;-69
2023/12/19 01:28:27;;;;;;;47.78;28.08;;;7.50;99.90;;;;;;5073719;28;20512;-69
2023/12/19 01:30:52;;;;;;;41.40;26.60;;;7.50;99.90;;;;;;5072181;28;20033;-69
2023/12/19 01:33:18;;;;;;;41.20;25.33;;;7.60;99.90;;;;;;5072245;28;20076;-69
2023/12/19 01:35:44;;;;;;;37.95;22.92;;;7.60;99.90;;;;;;5072165;28;20041;-69
2023/12/19 01:38:09;;;;;;;39.63;24.73;;;7.60;99.90;;;;;;5072195;28;20040;-69
2023/12/19 01:40:35;;;;;;;46.97;25.38;;;7.50;99.90;;;;;;5073569;28;20040;-69
2023/12/19 01:43:04;;;;;;;33.97;20.98;;;7.50;99.90;;;;;;5072096;28;20117;-69
2023/12/19 01:45:30;;;;;;;35.80;22.08;;;7.50;99.90;;;;;;5072083;28;20119;-69
2023/12/19 01:47:56;;;;;;;32.95;21.20;;;7.50;99.90;;;;;;5073394;28;20127;-69
2023/12/19 01:50:22;;;;;;;34.95;21.88;;;7.60;99.90;;;;;;5073472;28;20076;-69
2023/12/19 01:52:51;;;;;;;33.05;20.55;;;7.60;99.90;;;;;;5071826;28;20058;-69
2023/12/19 01:55:17;;;;;;;29.95;20.23;;;7.60;99.90;;;;;;5073063;28;20448;-69
2023/12/19 01:57:44;;;;;;;32.45;20.15;;;7.60;99.90;;;;;;5072287;28;20044;-69
2023/12/19 02:00:13;;;;;;;37.95;22.75;;;7.60;99.90;;;;;;5071892;28;20044;-69
2023/12/19 02:02:40;;;;;;;32.05;20.92;;;7.60;99.90;;;;;;5071743;28;20100;-69
2023/12/19 02:05:06;;;;;;;33.30;21.05;;;7.60;99.90;;;;;;5071807;28;20045;-69
2023/12/19 02:07:32;;;;;;;37.28;22.85;;;7.60;99.90;;;;;;5071706;28;20485;-69
2023/12/19 02:10:00;;;;;;;36.67;22.33;;;7.60;99.90;;;;;;5071768;28;20042;-69
2023/12/19 02:12:26;;;;;;;38.28;22.20;;;7.60;99.90;;;;;;5071708;28;20111;-69
2023/12/19 02:14:52;;;;;;;39.25;23.00;;;7.60;99.90;;;;;;5072908;28;20439;-69
2023/12/19 02:17:19;;;;;;;38.65;23.33;;;7.60;99.90;;;;;;5071674;28;20413;-69
2023/12/19 02:19:48;;;;;;;37.58;22.50;;;7.60;99.90;;;;;;5071973;28;20040;-69
2023/12/19 02:22:15;;;;;;;28.58;19.50;;;7.60;99.90;;;;;;5072929;28;20107;-69
2023/12/19 02:24:41;;;;;;;32.38;21.85;;;7.60;99.90;;;;;;5071651;28;20036;-69
2023/12/19 02:27:08;;;;;;;29.35;19.83;;;7.60;99.90;;;;;;5071782;28;20044;-69
2023/12/19 02:29:34;;;;;;;30.23;19.73;;;7.60;99.90;;;;;;5071856;28;20520;-69
2023/12/19 02:32:00;;;;;;;28.05;18.70;;;7.60;99.90;;;;;;5071711;28;20493;-69
2023/12/19 02:34:25;;;;;;;26.88;18.23;;;7.60;99.90;;;;;;5071838;28;20150;-69
2023/12/19 02:36:51;;;;;;;30.10;18.88;;;7.60;99.90;;;;;;5071469;28;20068;-69
2023/12/19 02:39:17;;;;;;;25.40;17.77;;;7.50;99.90;;;;;;5072958;28;20094;-69
2023/12/19 02:41:43;;;;;;;25.67;18.42;;;7.50;99.90;;;;;;5072840;28;20045;-69
2023/12/19 02:44:09;;;;;;;31.75;20.30;;;7.50;99.90;;;;;;5071385;28;20045;-69
2023/12/19 02:46:35;;;;;;;30.42;19.67;;;7.50;99.90;;;;;;5071647;28;20124;-69
2023/12/19 02:49:01;;;;;;;33.22;21.13;;;7.50;99.90;;;;;;5072814;28;20177;-69
2023/12/19 02:51:27;;;;;;;29.23;18.33;;;7.60;99.90;;;;;;5071571;28;20032;-69
2023/12/19 02:53:56;;;;;;;25.58;17.83;;;7.50;99.90;;;;;;5073014;28;20421;-69
2023/12/19 02:56:22;;;;;;;27.30;17.27;;;7.50;99.90;;;;;;5054579;28;20043;-69
2023/12/19 02:58:48;;;;;;;23.55;16.67;;;7.50;99.90;;;;;;5071315;28;20044;-69
2023/12/19 03:01:14;;;;;;;26.45;17.33;;;7.40;99.90;;;;;;5071218;28;20093;-69
2023/12/19 03:03:40;;;;;;;21.27;15.35;;;7.50;99.90;;;;;;5072511;28;20040;-69
2023/12/19 03:06:06;;;;;;;23.50;15.43;;;7.50;99.90;;;;;;5071225;28;20504;-69
2023/12/19 03:08:34;;;;;;;23.67;15.40;;;7.50;99.90;;;;;;5071239;28;20577;-69
2023/12/19 03:10:59;;;;;;;21.02;15.40;;;7.40;99.90;;;;;;5054436;28;20044;-69
2023/12/19 03:13:25;;;;;;;22.38;14.77;;;7.50;99.90;;;;;;5071425;28;20052;-69
2023/12/19 03:15:50;;;;;;;18.23;13.77;;;7.40;99.90;;;;;;5075776;28;20515;-69
2023/12/19 03:18:16;;;;;;;21.23;15.10;;;7.40;99.90;;;;;;5074793;28;20043;-69
2023/12/19 03:20:43;;;;;;;20.73;14.07;;;7.40;99.90;;;;;;5076208;28;20044;-69
2023/12/19 03:23:09;;;;;;;19.80;15.10;;;7.40;99.90;;;;;;5074712;28;20041;-69
2023/12/19 03:25:34;;;;;;;23.00;15.02;;;7.50;99.90;;;;;;5075838;28;20040;-69
2023/12/19 03:28:00;;;;;;;21.15;15.45;;;7.40;99.90;;;;;;5075988;28;20041;-69
2023/12/19 03:30:25;;;;;;;19.45;14.98;;;7.40;99.90;;;;;;5074801;28;20040;-69
2023/12/19 03:32:51;;;;;;;21.85;15.48;;;7.40;99.90;;;;;;5074699;28;20044;-69
2023/12/19 03:35:16;;;;;;;23.17;14.88;;;7.40;99.90;;;;;;5075970;28;20393;-69
2023/12/19 03:37:42;;;;;;;23.13;15.80;;;7.40;99.90;;;;;;5057813;28;20045;-69
2023/12/19 03:40:09;;;;;;;25.00;16.42;;;7.40;99.90;;;;;;5074387;28;20048;-69
2023/12/19 03:42:35;;;;;;;25.52;16.33;;;7.40;99.90;;;;;;5074547;28;20084;-69
2023/12/19 03:45:00;;;;;;;21.55;15.30;;;7.40;99.90;;;;;;5075799;28;20535;-69
2023/12/19 03:47:26;;;;;;;22.35;15.68;;;7.40;99.90;;;;;;5075697;28;20393;-69
2023/12/19 03:49:51;;;;;;;21.95;15.30;;;7.40;99.90;;;;;;5075760;28;20137;-69
2023/12/19 03:52:17;;;;;;;19.77;14.02;;;7.40;99.90;;;;;;5075604;28;20119;-69
2023/12/19 03:54:43;;;;;;;21.92;15.95;;;7.40;99.90;;;;;;5074092;28;20405;-69
2023/12/19 03:57:08;;;;;;;21.95;15.13;;;7.40;99.90;;;;;;5074043;28;20047;-69
2023/12/19 03:59:34;;;;;;;20.38;14.88;;;7.40;99.90;;;;;;5075512;28;20036;-69
2023/12/19 04:02:00;;;;;;;25.98;16.50;;;7.40;99.90;;;;;;5075394;28;20446;-69
2023/12/19 04:04:25;;;;;;;22.90;15.93;;;7.40;99.90;;;;;;5073920;28;20052;-69
2023/12/19 04:06:51;;;;;;;22.20;15.23;;;7.40;99.90;;;;;;5075379;28;20039;-69
2023/12/19 04:09:17;;;;;;;25.08;16.42;;;7.40;99.90;;;;;;5075263;28;20067;-69
2023/12/19 04:11:47;;;;;;;23.92;16.88;;;7.40;99.90;;;;;;5075190;28;20037;-69
2023/12/19 04:14:14;;;;;;;22.95;16.02;;;7.40;99.90;;;;;;5073779;28;20041;-69
2023/12/19 04:16:39;;;;;;;22.58;15.88;;;7.40;99.90;;;;;;5073651;28;20098;-69
2023/12/19 04:19:05;;;;;;;23.77;16.15;;;7.40;99.90;;;;;;5073880;28;20044;-69
2023/12/19 04:21:30;;;;;;;23.90;16.67;;;7.40;99.90;;;;;;5073539;28;20443;-69
2023/12/19 04:23:56;;;;;;;21.42;15.93;;;7.40;99.90;;;;;;5073457;28;20045;-69
2023/12/19 04:26:21;;;;;;;22.10;15.88;;;7.40;99.90;;;;;;5072776;28;20039;-69
2023/12/19 04:28:47;;;;;;;23.77;15.93;;;7.40;99.90;;;;;;5073406;28;20048;-69
2023/12/19 04:31:13;;;;;;;20.58;15.60;;;7.40;99.90;;;;;;5074849;28;20116;-69
2023/12/19 04:33:39;;;;;;;19.85;13.90;;;7.40;99.90;;;;;;5074567;28;20033;-69
2023/12/19 04:36:07;;;;;;;17.13;14.00;;;7.40;99.90;;;;;;5074841;28;20112;-69
2023/12/19 04:38:32;;;;;;;23.05;14.32;;;7.40;99.90;;;;;;5073241;28;20076;-69
2023/12/19 04:40:58;;;;;;;20.92;14.60;;;7.40;99.90;;;;;;5073146;28;20121;-69
2023/12/19 04:43:24;;;;;;;20.58;14.98;;;7.40;99.90;;;;;;5073167;28;20040;-69
2023/12/19 04:45:50;;;;;;;23.10;15.07;;;7.40;99.90;;;;;;5074645;28;20090;-69
2023/12/19 04:48:16;;;;;;;23.20;15.35;;;7.40;99.90;;;;;;5073171;28;20493;-69
2023/12/19 04:50:42;;;;;;;22.80;15.93;;;7.40;99.90;;;;;;5072905;28;20083;-69
2023/12/19 04:53:08;;;;;;;24.40;15.98;;;7.40;99.90;;;;;;5074499;28;20040;-70
2023/12/19 04:55:34;;;;;;;26.63;16.23;;;7.40;99.90;;;;;;5072866;28;20059;-70
2023/12/19 04:58:00;;;;;;;19.63;14.52;;;7.40;99.90;;;;;;5074360;28;20044;-69
2023/12/19 05:00:25;;;;;;;25.92;16.10;;;7.50;99.90;;;;;;5072819;28;20047;-69
2023/12/19 05:02:53;;;;;;;22.67;15.05;;;7.40;99.90;;;;;;5073057;28;20041;-69
2023/12/19 05:05:19;;;;;;;19.77;14.23;;;7.50;99.90;;;;;;5074241;28;20048;-69
2023/12/19 05:07:45;;;;;;;20.80;14.52;;;7.50;99.90;;;;;;5072627;28;20032;-70
2023/12/19 05:10:10;;;;;;;21.42;14.38;;;7.50;99.90;;;;;;5072892;28;20101;-70
2023/12/19 05:12:37;;;;;;;20.00;14.18;;;7.40;99.90;;;;;;5072488;28;20471;-70
2023/12/19 05:15:03;;;;;;;21.60;13.50;;;7.50;99.90;;;;;;5072842;28;20090;-70
2023/12/19 05:17:29;;;;;;;20.65;13.40;;;7.50;99.90;;;;;;5072772;28;20098;-70
2023/12/19 05:19:55;;;;;;;20.02;13.57;;;7.50;99.90;;;;;;5073999;28;20440;-70
2023/12/19 05:22:21;;;;;;;19.88;13.27;;;7.50;99.90;;;;;;5072239;28;20041;-70
2023/12/19 05:24:46;;;;;;;22.58;14.40;;;7.50;99.90;;;;;;5073918;28;20094;-70
2023/12/19 05:27:12;;;;;;;19.40;13.23;;;7.50;99.90;;;;;;5072536;28;20048;-70
2023/12/19 05:29:37;;;;;;;17.40;12.10;;;7.50;99.90;;;;;;5072256;28;20489;-70
2023/12/19 05:32:04;;;;;;;17.52;13.00;;;7.50;99.90;;;;;;5073665;28;20043;-69
2023/12/19 05:34:30;;;;;;;16.73;12.02;;;7.50;99.90;;;;;;5072448;28;20091;-69
2023/12/19 05:36:55;;;;;;;22.02;12.88;;;7.50;99.90;;;;;;5072216;28;20489;-69
2023/12/19 05:39:21;;;;;;;18.08;12.60;;;7.50;99.90;;;;;;5073668;28;20508;-69
2023/12/19 05:41:46;;;;;;;16.05;12.30;;;7.60;99.90;;;;;;5072044;28;20044;-69
2023/12/19 05:44:12;;;;;;;15.18;11.02;;;7.60;99.90;;;;;;5072041;28;20036;-70
2023/12/19 05:46:39;;;;;;;16.75;11.40;;;7.60;99.90;;;;;;5073128;28;20097;-70
2023/12/19 05:49:05;;;;;;;16.33;10.95;;;7.60;99.90;;;;;;5071939;28;20044;-70
2023/12/19 05:51:31;;;;;;;17.42;11.73;;;7.60;99.90;;;;;;5073136;28;20052;-70
2023/12/19 05:53:59;;;;;;;15.18;11.07;;;7.60;99.90;;;;;;5071959;28;20037;-70
2023/12/19 05:56:25;;;;;;;16.65;10.52;;;7.60;99.90;;;;;;5071919;28;20040;-70
2023/12/19 05:58:51;;;;;;;15.68;10.70;;;7.60;99.90;;;;;;5071956;28;20123;-70
2023/12/19 06:01:17;;;;;;;16.10;11.18;;;7.60;99.90;;;;;;5073413;28;20040;-70
2023/12/19 06:03:42;;;;;;;16.63;11.07;;;7.60;99.90;;;;;;5071893;28;20083;-70
2023/12/19 06:06:12;;;;;;;14.48;9.52;;;7.70;99.90;;;;;;5072153;28;20071;-70
2023/12/19 06:08:37;;;;;;;14.57;9.75;;;7.70;99.90;;;;;;5071792;28;20090;-70
2023/12/19 06:11:03;;;;;;;14.15;10.48;;;7.70;99.90;;;;;;5073231;28;20048;-70
2023/12/19 06:13:29;;;;;;;13.30;9.45;;;7.60;99.90;;;;;;5073243;28;20106;-70
2023/12/19 06:15:55;;;;;;;15.05;9.80;;;7.70;99.90;;;;;;5071681;28;20047;-70
2023/12/19 06:18:20;;;;;;;15.18;9.27;;;7.70;99.90;;;;;;5073172;28;20033;-70
2023/12/19 06:20:46;;;;;;;14.32;9.13;;;7.60;99.90;;;;;;5071603;28;20575;-70
2023/12/19 06:23:11;;;;;;;12.88;9.00;;;7.70;99.90;;;;;;5072837;28;20067;-70
2023/12/19 06:25:38;;;;;;;14.00;8.98;;;7.70;99.90;;;;;;5073102;28;20037;-70
2023/12/19 06:28:04;;;;;;;13.65;9.15;;;7.70;99.90;;;;;;5071499;28;20044;-70
2023/12/19 06:30:30;;;;;;;11.48;8.43;;;7.70;99.90;;;;;;5071514;28;20132;-70
2023/12/19 06:32:55;;;;;;;11.50;8.35;;;7.70;99.90;;;;;;5071527;28;20115;-70
2023/12/19 06:35:21;;;;;;;11.88;8.55;;;7.70;99.90;;;;;;5073024;28;20036;-70
2023/12/19 06:37:47;;;;;;;12.38;8.23;;;7.70;99.90;;;;;;5071515;28;20037;-70
2023/12/19 06:40:13;;;;;;;9.23;7.28;;;7.70;99.90;;;;;;5073021;28;20040;-70
2023/12/19 06:42:38;;;;;;;10.75;8.10;;;7.70;99.90;;;;;;5071672;28;20036;-70
2023/12/19 06:45:04;;;;;;;11.75;8.18;;;7.70;99.90;;;;;;5071488;28;20527;-70
2023/12/19 06:47:30;;;;;;;10.95;8.10;;;7.70;99.90;;;;;;5072955;28;20044;-70
2023/12/19 06:49:56;;;;;;;12.27;8.23;;;7.70;99.90;;;;;;5073510;28;20051;-70
2023/12/19 06:52:21;;;;;;;11.48;8.63;;;7.80;99.90;;;;;;5075501;28;20463;-69
2023/12/19 06:54:47;;;;;;;10.70;8.25;;;7.80;99.90;;;;;;5075224;28;20409;-69
2023/12/19 06:57:13;;;;;;;10.80;7.45;;;7.70;99.90;;;;;;5075164;28;20123;-69
2023/12/19 06:59:38;;;;;;;10.88;8.50;;;7.80;99.90;;;;;;5075142;28;20119;-69
2023/12/19 07:02:04;;;;;;;10.85;8.18;;;7.70;99.90;;;;;;5075016;28;20080;-69
2023/12/19 07:04:31;;;;;;;10.95;8.05;;;7.80;99.90;;;;;;5075055;28;20048;-69
2023/12/19 07:06:56;;;;;;;11.88;8.63;;;7.80;99.90;;;;;;5076547;28;20036;-69
2023/12/19 07:09:22;;;;;;;12.65;9.07;;;7.80;99.90;;;;;;5074944;28;20107;-69
2023/12/19 07:11:48;;;;;;;10.48;8.73;;;7.70;99.90;;;;;;5076093;28;20036;-69
2023/12/19 07:14:13;;;;;;;12.15;8.80;;;7.80;99.90;;;;;;5074862;28;20405;-70
2023/12/19 07:16:39;;;;;;;11.00;8.43;;;7.80;99.90;;;;;;5076363;28;20068;-70
2023/12/19 07:19:05;;;;;;;11.15;8.20;;;7.80;99.90;;;;;;5075948;28;20087;-70
2023/12/19 07:21:35;;;;;;;12.43;9.10;;;7.80;99.90;;;;;;5074671;28;20067;-70
2023/12/19 07:24:01;;;;;;;14.20;9.05;;;7.80;99.90;;;;;;5058264;28;20052;-69
2023/12/19 07:26:28;;;;;;;14.00;9.52;;;7.80;99.90;;;;;;5074908;28;20040;-70
2023/12/19 07:29:00;;;;;;;11.85;9.15;;;7.80;99.90;;;;;;5074515;28;20036;-69
2023/12/19 07:31:28;;;;;;;13.05;8.45;;;7.80;99.90;;;;;;5074719;28;20067;-69
2023/12/19 07:33:59;;;;;;;11.35;8.25;;;7.80;99.90;;;;;;5074799;28;20136;-70
2023/12/19 07:36:25;;;;;;;10.95;9.20;;;7.80;99.90;;;;;;5075856;28;20417;-70
2023/12/19 07:38:52;;;;;;;12.73;9.70;;;7.90;99.90;;;;;;5074714;28;20051;-69
2023/12/19 07:41:18;;;;;;;12.15;9.75;;;7.80;99.90;;;;;;5074686;28;20493;-70
2023/12/19 07:43:44;;;;;;;12.23;9.40;;;7.90;99.90;;;;;;5074363;28;20055;-70
2023/12/19 07:46:10;;;;;;;13.57;10.10;;;7.90;99.90;;;;;;5057627;28;20040;-70
2023/12/19 07:48:36;;;;;;;12.95;9.82;;;7.90;99.90;;;;;;5074199;28;20039;-70
2023/12/19 07:51:03;;;;;;;13.52;10.45;;;7.90;99.90;;;;;;5074188;28;20049;-70
2023/12/19 07:53:32;;;;;;;13.73;9.85;;;7.90;99.90;;;;;;5074195;28;20036;-70
2023/12/19 07:56:00;;;;;;;12.73;10.13;;;7.90;99.90;;;;;;5074169;28;20037;-69
2023/12/19 07:58:29;;;;;;;14.20;10.60;;;8.00;99.90;;;;;;5075608;28;20091;-69
2023/12/19 08:00:55;;;;;;;15.75;10.88;;;7.90;99.90;;;;;;5073813;28;20044;-69
2023/12/19 08:03:24;;;;;;;13.20;9.93;;;7.90;99.90;;;;;;5074005;28;20113;-69
2023/12/19 08:05:50;;;;;;;14.63;10.68;;;8.00;99.90;;;;;;5074024;28;20032;-70
2023/12/19 08:08:19;;;;;;;13.23;9.88;;;8.00;99.90;;;;;;5073851;28;20048;-70
2023/12/19 08:10:45;;;;;;;14.25;10.27;;;8.00;99.90;;;;;;5073857;28;20048;-70
2023/12/19 08:13:11;;;;;;;12.95;9.90;;;8.00;99.90;;;;;;5075301;28;20051;-70
2023/12/19 08:15:37;;;;;;;14.48;10.38;;;8.00;99.90;;;;;;5074583;28;20062;-70
2023/12/19 08:18:03;;;;;;;13.65;9.98;;;8.00;99.90;;;;;;5074170;28;20500;-69
2023/12/19 08:20:28;;;;;;;15.50;11.40;;;8.00;99.90;;;;;;5075632;28;20044;-69
2023/12/19 08:22:54;;;;;;;14.55;10.23;;;8.10;99.90;;;;;;5074987;28;20040;-69
2023/12/19 08:25:20;;;;;;;16.63;11.75;;;8.10;99.90;;;;;;5073658;28;20040;-69
2023/12/19 08:27:46;;;;;;;16.60;10.50;;;8.10;99.90;;;;;;5073673;28;20047;-69
2023/12/19 08:30:12;;;;;;;14.52;10.57;;;8.20;99.90;;;;;;5074680;28;20037;-69
2023/12/19 08:32:38;;;;;;;16.33;11.60;;;8.10;99.90;;;;;;5073425;28;20456;-73
2023/12/19 08:35:05;;;;;;;15.02;10.45;;;8.20;99.90;;;;;;5074879;28;20041;-72
2023/12/19 08:37:31;;;;;;;14.95;10.73;;;8.20;99.90;;;;;;5056665;28;20040;-69
2023/12/19 08:39:57;;;;;;;15.80;11.45;;;8.20;99.90;;;;;;5074244;28;20039;-69
2023/12/19 08:42:23;;;;;;;16.58;11.45;;;8.20;99.90;;;;;;5073558;28;20113;-70
2023/12/19 08:44:52;;;;;;;18.27;12.68;;;8.20;99.90;;;;;;5073576;28;20477;-70
2023/12/19 08:47:18;;;;;;;14.43;11.25;;;8.20;99.90;;;;;;5074822;28;20072;-70
2023/12/19 08:49:44;;;;;;;17.95;12.57;;;8.30;99.90;;;;;;5073168;28;20079;-70
2023/12/19 08:52:10;;;;;;;17.58;12.10;;;8.30;99.90;;;;;;5073238;28;20047;-70
2023/12/19 08:54:36;;;;;;;18.58;12.07;;;8.30;99.90;;;;;;5072973;28;20040;-70
2023/12/19 08:57:02;;;;;;;15.05;10.80;;;8.30;99.90;;;;;;5072892;28;20036;-70
2023/12/19 08:59:28;;;;;;;20.85;12.52;;;8.30;99.90;;;;;;5072903;28;20048;-70
2023/12/19 09:01:55;;;;;;;15.05;10.82;;;8.30;99.90;;;;;;5074012;28;20040;-70
2023/12/19 09:04:21;;;;;;;18.27;11.98;;;8.30;99.90;;;;;;5073024;28;20048;-70
2023/12/19 09:06:47;;;;;;;20.98;12.68;;;8.30;99.90;;;;;;5074225;28;20086;-70
2023/12/19 09:09:13;;;;;;;16.77;11.25;;;8.40;99.90;;;;;;5072602;28;20048;-70
2023/12/19 09:11:39;;;;;;;18.25;12.02;;;8.40;99.90;;;;;;5073740;28;20047;-70
2023/12/19 09:14:05;;;;;;;20.27;12.35;;;8.40;99.90;;;;;;5072760;28;20073;-70
2023/12/19 09:16:31;;;;;;;17.85;12.23;;;8.40;99.90;;;;;;5073668;28;20127;-69
2023/12/19 09:18:57;;;;;;;16.55;11.48;;;8.40;99.90;;;;;;5072514;28;20194;-69
2023/12/19 09:21:23;;;;;;;17.65;11.52;;;8.40;99.90;;;;;;5072658;28;20099;-69
2023/12/19 09:23:48;;;;;;;21.05;12.05;;;8.50;99.90;;;;;;5072528;28;20076;-69
2023/12/19 09:26:14;;;;;;;22.00;12.73;;;8.50;99.90;;;;;;5072657;28;20578;-69
2023/12/19 09:28:40;;;;;;;20.02;12.38;;;8.50;99.90;;;;;;5055668;28;20461;-69
2023/12/19 09:31:08;;;;;;;18.38;11.85;;;8.50;99.90;;;;;;5072276;28;20050;-69
2023/12/19 09:33:37;;;;;;;16.85;11.48;;;8.50;99.90;;;;;;5072253;28;20040;-69
2023/12/19 09:36:26;;;;;;;17.67;11.90;;;8.50;99.90;;;;;;5073742;28;20040;-69
2023/12/19 09:38:52;;;;;;;17.13;11.48;;;8.50;99.90;;;;;;5072202;28;20089;-69
2023/12/19 09:41:18;;;;;;;16.95;11.15;;;8.50;99.90;;;;;;5072345;28;20044;-69
2023/12/19 09:43:44;;;;;;;17.63;12.07;;;8.50;99.90;;;;;;5072170;28;20048;-69
2023/12/19 09:46:13;;;;;;;18.33;11.93;;;8.50;99.90;;;;;;5072083;28;20040;-69
2023/12/19 09:48:41;;;;;;;17.70;12.18;;;8.60;99.90;;;;;;5073494;28;20052;-69
2023/12/19 09:51:11;;;;;;;21.98;13.45;;;8.60;99.90;;;;;;5055304;28;20049;-69
2023/12/19 09:53:37;;;;;;;17.88;11.35;;;8.60;99.90;;;;;;5072039;28;20082;-69
2023/12/19 09:56:02;;;;;;;17.52;10.98;;;8.60;99.90;;;;;;5073411;28;20028;-69
2023/12/19 09:58:28;;;;;;;19.92;11.70;;;8.60;99.90;;;;;;5073165;28;20097;-69
2023/12/19 10:00:58;;;;;;;17.02;11.57;;;8.60;99.90;;;;;;5072268;28;20459;-69
2023/12/19 10:03:24;;;;;;;15.02;11.15;;;8.60;99.90;;;;;;5073397;28;20048;-69
2023/12/19 10:05:49;;;;;;;17.80;12.32;;;8.60;99.90;;;;;;5072100;28;20040;-69
2023/12/19 10:08:15;;;;;;;18.10;11.77;;;8.60;99.90;;;;;;5073061;28;20451;-69
2023/12/19 10:10:53;;;;;;;15.60;11.25;;;8.70;99.90;;;;;;5071712;28;20052;-69
2023/12/19 10:13:29;;;;;;;17.60;12.13;;;8.60;99.90;;;;;;5071787;28;20040;-69
2023/12/19 10:16:04;;;;;;;15.80;11.80;;;8.70;99.90;;;;;;5071750;28;20036;-69
2023/12/19 10:18:30;;;;;;;17.95;12.15;;;8.60;99.90;;;;;;5071789;28;20497;-69
2023/12/19 10:21:04;;;;;;;19.40;12.98;;;8.70;99.90;;;;;;5071699;28;20135;-69
2023/12/19 10:23:33;;;;;;;19.27;12.73;;;8.70;99.90;;;;;;5071588;28;20059;-69
2023/12/19 10:25:59;;;;;;;17.38;11.80;;;8.70;99.90;;;;;;5075402;28;20501;-69
2023/12/19 10:28:25;;;;;;;16.85;11.18;;;8.60;99.90;;;;;;5075708;28;20090;-69
2023/12/19 10:30:51;;;;;;;13.77;10.15;;;8.70;99.90;;;;;;5077499;28;20123;-69
2023/12/19 10:33:16;;;;;;;15.73;10.93;;;8.60;99.90;;;;;;5075972;28;20090;-69
2023/12/19 10:35:45;;;;;;;16.90;11.20;;;8.70;99.90;;;;;;5076508;28;20033;-69
2023/12/19 10:38:11;;;;;;;11.88;9.73;;;8.70;99.90;;;;;;5076074;28;20055;-69
2023/12/19 10:40:37;;;;;;;13.20;9.80;;;8.70;99.90;;;;;;5077088;28;20044;-69
2023/12/19 10:43:03;;;;;;;16.75;10.02;;;8.70;99.90;;;;;;5077030;28;20036;-69
2023/12/19 10:45:30;;;;;;;15.43;10.93;;;8.70;99.90;;;;;;5077050;28;20029;-69
2023/12/19 10:47:55;;;;;;;14.88;10.18;;;8.70;99.90;;;;;;5076820;28;20036;-69
2023/12/19 10:50:21;;;;;;;13.38;9.75;;;8.70;99.90;;;;;;5075673;28;20097;-69
2023/12/19 10:52:51;;;;;;;14.07;10.10;;;8.70;99.90;;;;;;5075306;28;20431;-69
2023/12/19 10:55:21;;;;;;;15.45;10.68;;;8.80;99.90;;;;;;5075290;28;20036;-69
2023/12/19 10:57:49;;;;;;;11.85;9.43;;;8.70;99.90;;;;;;5075292;28;20523;-69
2023/12/19 11:00:21;;;;;;;12.25;9.55;;;8.70;99.90;;;;;;5076675;28;20119;-69
2023/12/19 11:03:08;;;;;;;16.27;10.82;;;8.70;99.90;;;;;;5075131;28;20052;-69
2023/12/19 11:05:47;;;;;;;11.63;8.95;;;8.80;99.90;;;;;;5075106;28;20045;-69
2023/12/19 11:08:15;;;;;;;14.77;9.25;;;8.80;99.90;;;;;;5075153;28;20043;-70
2023/12/19 11:10:56;;;;;;;14.05;9.45;;;8.80;99.90;;;;;;5076400;28;20080;-70
2023/12/19 11:13:22;;;;;;;10.55;8.95;;;8.70;99.90;;;;;;5075031;28;20044;-70
2023/12/19 11:15:58;;;;;;;11.05;9.02;;;8.70;99.90;;;;;;5074893;28;20405;-70
2023/12/19 11:18:51;;;;;;;10.25;8.55;;;8.80;99.90;;;;;;5075221;28;20040;-70
2023/12/19 11:21:27;;;;;;;11.18;9.65;;;8.70;99.90;;;;;;5075084;28;20044;-70
2023/12/19 11:23:59;;;;;;;13.70;10.25;;;8.80;99.90;;;;;;5074897;28;20127;-71
2023/12/19 11:26:39;;;;;;;13.20;10.35;;;8.80;99.90;;;;;;5074987;28;20439;-70
2023/12/19 11:29:04;;;;;;;12.68;9.88;;;8.70;99.90;;;;;;5076392;28;20074;-70
2023/12/19 11:31:35;;;;;;;13.05;10.60;;;8.70;99.90;;;;;;5076196;28;20072;-68
2023/12/19 11:34:22;;;;;;;12.10;10.80;;;8.80;99.90;;;;;;5074817;28;20048;-68
2023/12/19 11:37:02;;;;;;;11.73;9.73;;;8.70;99.90;;;;;;5073795;28;20040;-70
2023/12/19 11:39:29;;;;;;;14.20;10.80;;;8.70;99.90;;;;;;5076367;28;20087;-72
2023/12/19 11:41:55;;;;;;;14.13;10.95;;;8.70;99.90;;;;;;5058040;28;20048;-70
2023/12/19 11:44:33;;;;;;;12.90;10.95;;;8.70;99.90;;;;;;5075594;28;20475;-70
2023/12/19 11:47:19;;;;;;;14.70;11.40;;;8.80;99.90;;;;;;5074580;28;20127;-68
2023/12/19 11:49:45;;;;;;;12.95;11.38;;;8.80;99.90;;;;;;5075707;28;20036;-70
2023/12/19 11:52:36;;;;;;;13.40;11.15;;;8.80;99.90;;;;;;5074183;28;20052;-70
2023/12/19 11:55:03;;;;;;;15.07;12.00;;;8.80;99.90;;;;;;5074153;28;20045;-70
2023/12/19 11:57:29;;;;;;;15.95;12.60;;;8.80;99.90;;;;;;5057441;28;20051;-70
2023/12/19 11:59:55;;;;;;;17.75;13.48;;;8.70;99.90;;;;;;5074146;28;20048;-70
2023/12/19 12:02:36;;;;;;;18.05;13.50;;;8.80;99.90;;;;;;5073947;28;20056;-70
2023/12/19 12:05:06;;;;;;;17.98;13.27;;;8.80;99.90;;;;;;5074168;28;20378;-70
2023/12/19 12:07:32;;;;;;;16.90;13.30;;;8.80;99.90;;;;;;5074074;28;20051;-70
2023/12/19 12:10:04;;;;;;;18.88;14.13;;;8.80;99.90;;;;;;5073972;28;20036;-70
2023/12/19 12:12:33;;;;;;;16.48;12.68;;;8.80;99.90;;;;;;5057468;28;20437;-70
2023/12/19 12:15:09;;;;;;;18.45;12.98;;;8.80;99.90;;;;;;5075026;28;20566;-70
2023/12/19 12:17:36;;;;;;;13.80;11.95;;;8.80;99.90;;;;;;5075268;28;20040;-70
2023/12/19 12:20:04;;;;;;;18.58;12.85;;;8.80;99.90;;;;;;5073715;28;20032;-70
2023/12/19 12:22:32;;;;;;;14.82;11.63;;;8.90;99.90;;;;;;5073519;28;20037;-70
2023/12/19 12:24:57;;;;;;;15.90;11.25;;;8.80;99.90;;;;;;5073729;28;20501;-70
2023/12/19 12:27:24;;;;;;;15.65;10.82;;;8.90;99.90;;;;;;5075084;28;20071;-70
2023/12/19 12:29:51;;;;;;;15.13;10.57;;;8.90;99.90;;;;;;5074978;28;20504;-70
2023/12/19 12:32:17;;;;;;;13.43;10.73;;;8.90;99.90;;;;;;5073408;28;20528;-70
2023/12/19 12:34:44;;;;;;;13.40;9.90;;;8.90;99.90;;;;;;5074923;28;20041;-70
2023/12/19 12:37:10;;;;;;;12.57;9.93;;;8.90;99.90;;;;;;5073364;28;20108;-70